createdAt,value
2022-07-27T00:01:03.114Z,0.90
2022-07-27T00:03:32.476Z,1.25
2022-07-27T00:06:00.552Z,1.00
2022-07-27T00:08:28.563Z,0.88
2022-07-27T00:10:57.346Z,0.90
2022-07-27T00:13:25.263Z,1.40
2022-07-27T00:15:53.490Z,1.10
2022-07-27T00:18:21.536Z,1.33
2022-07-27T00:20:50.805Z,0.90
2022-07-27T00:23:18.728Z,1.20
2022-07-27T00:25:46.640Z,0.95
2022-07-27T00:28:14.597Z,0.80
2022-07-27T00:30:42.743Z,1.00
2022-07-27T00:33:10.679Z,1.10
2022-07-27T00:35:45.395Z,1.15
2022-07-27T00:38:14.810Z,1.00
2022-07-27T00:40:42.720Z,0.93
2022-07-27T00:43:10.696Z,1.25
2022-07-27T00:45:39.007Z,1.17
2022-07-27T00:48:07.551Z,0.80
2022-07-27T00:50:36.023Z,1.13
2022-07-27T00:53:06.020Z,1.13
2022-07-27T00:55:35.894Z,1.10
2022-07-27T00:58:05.960Z,0.98
2022-07-27T01:00:33.896Z,1.00
2022-07-27T01:03:02.426Z,1.27
2022-07-27T01:05:42.383Z,1.35
2022-07-27T01:08:13.873Z,1.55
2022-07-27T01:10:44.701Z,1.25
2022-07-27T01:13:13.535Z,0.90
2022-07-27T01:15:42.597Z,1.08
2022-07-27T01:18:13.135Z,1.13
2022-07-27T01:23:11.046Z,1.05
2022-07-27T01:25:42.391Z,1.42
2022-07-27T01:28:10.335Z,1.42
2022-07-27T01:30:38.276Z,0.90
2022-07-27T01:33:08.097Z,1.40
2022-07-27T01:35:36.624Z,1.08
2022-07-27T01:38:05.481Z,1.58
2022-07-27T01:40:36.862Z,1.85
2022-07-27T01:43:05.130Z,1.10
2022-07-27T01:45:33.150Z,1.30
2022-07-27T01:48:01.169Z,1.30
2022-07-27T01:50:29.364Z,1.40
2022-07-27T01:52:57.321Z,1.90
2022-07-27T01:55:25.411Z,1.45
2022-07-27T01:57:54.755Z,1.80
2022-07-27T02:00:22.728Z,1.40
2022-07-27T02:02:50.684Z,1.77
2022-07-27T02:05:18.675Z,1.30
2022-07-27T02:07:46.637Z,1.77
2022-07-27T02:10:14.595Z,1.52
2022-07-27T02:12:41.640Z,2.60
2022-07-27T02:15:15.410Z,1.77
2022-07-27T02:17:45.317Z,1.83
2022-07-27T02:20:15.383Z,1.50
2022-07-27T02:22:43.879Z,1.83
2022-07-27T02:25:13.688Z,1.65
2022-07-27T02:27:42.786Z,1.63
2022-07-27T02:30:14.431Z,1.33
2022-07-27T02:32:45.869Z,1.17
2022-07-27T02:35:18.947Z,2.03
2022-07-27T02:37:48.812Z,2.70
2022-07-27T02:40:18.110Z,1.33
2022-07-27T02:42:46.202Z,1.58
2022-07-27T02:45:16.088Z,1.40
2022-07-27T02:47:44.427Z,1.70
2022-07-27T02:50:13.342Z,1.60
2022-07-27T02:52:41.655Z,1.70
2022-07-27T02:55:10.652Z,1.33
2022-07-27T02:57:41.197Z,1.80
2022-07-27T03:00:13.484Z,1.85
2022-07-27T03:02:43.111Z,1.30
2022-07-27T03:05:12.641Z,1.73
2022-07-27T03:07:40.623Z,1.77
2022-07-27T03:10:09.324Z,1.52
2022-07-27T03:12:37.232Z,2.05
2022-07-27T03:15:06.324Z,1.42
2022-07-27T03:17:34.258Z,1.65
2022-07-27T03:20:03.606Z,1.80
2022-07-27T03:22:33.498Z,1.85
2022-07-27T03:25:01.573Z,1.15
2022-07-27T03:27:29.890Z,1.33
2022-07-27T03:29:58.340Z,1.38
2022-07-27T03:32:26.416Z,1.67
2022-07-27T03:34:54.466Z,1.83
2022-07-27T03:37:23.764Z,1.30
2022-07-27T03:39:51.687Z,2.10
2022-07-27T03:42:19.644Z,1.45
2022-07-27T03:44:47.597Z,1.17
2022-07-27T03:47:15.563Z,1.63
2022-07-27T03:49:43.488Z,1.13
2022-07-27T03:52:17.266Z,1.35
2022-07-27T03:54:47.315Z,0.98
2022-07-27T03:57:15.702Z,1.30
2022-07-27T03:59:43.854Z,1.38
2022-07-27T04:02:11.879Z,1.00
2022-07-27T04:04:39.886Z,1.85
2022-07-27T04:07:07.818Z,0.98
2022-07-27T04:09:36.098Z,1.10
2022-07-27T04:12:05.991Z,1.23
2022-07-27T04:14:34.115Z,0.82
2022-07-27T04:17:02.177Z,0.95
2022-07-27T04:19:30.297Z,0.95
2022-07-27T04:21:58.365Z,0.82
2022-07-27T04:24:26.405Z,0.88
2022-07-27T04:26:54.278Z,0.93
2022-07-27T04:29:24.052Z,1.02
2022-07-27T04:31:52.182Z,1.00
2022-07-27T04:34:21.143Z,0.75
2022-07-27T04:36:50.072Z,1.00
2022-07-27T04:39:17.967Z,0.68
2022-07-27T04:41:46.160Z,0.80
2022-07-27T04:44:14.114Z,0.70
2022-07-27T04:46:43.872Z,0.77
2022-07-27T04:49:12.188Z,0.80
2022-07-27T04:51:43.916Z,0.65
2022-07-27T04:54:12.559Z,0.70
2022-07-27T04:56:40.649Z,0.60
2022-07-27T04:59:08.809Z,0.70
2022-07-27T05:01:37.090Z,0.88
2022-07-27T05:04:06.955Z,0.80
2022-07-27T05:06:34.918Z,0.70
2022-07-27T05:09:02.900Z,0.50
2022-07-27T05:11:30.939Z,0.88
2022-07-27T05:13:58.866Z,0.45
2022-07-27T05:16:29.100Z,0.50
2022-07-27T05:18:57.480Z,0.60
2022-07-27T05:21:27.407Z,0.55
2022-07-27T05:23:55.769Z,0.70
2022-07-27T05:26:23.747Z,0.50
2022-07-27T05:28:51.626Z,0.52
2022-07-27T05:31:19.832Z,0.38
2022-07-27T05:33:49.754Z,0.35
2022-07-27T05:36:18.525Z,0.47
2022-07-27T05:38:47.831Z,0.30
2022-07-27T05:41:15.853Z,0.30
2022-07-27T05:43:43.771Z,0.20
2022-07-27T05:46:11.837Z,0.20
2022-07-27T05:48:39.923Z,0.10
2022-07-27T05:51:08.446Z,0.20
2022-07-27T05:53:36.565Z,0.20
2022-07-27T05:56:07.985Z,0.20
2022-07-27T05:58:36.227Z,0.20
2022-07-27T06:01:04.235Z,0.20
2022-07-27T06:03:32.285Z,0.03
2022-07-27T06:06:14.409Z,0.20
2022-07-27T06:08:42.377Z,0.20
2022-07-27T06:11:12.141Z,0.10
2022-07-27T06:13:42.197Z,0.20
2022-07-27T06:18:38.675Z,0.15
2022-07-27T06:21:06.770Z,0.20
2022-07-27T06:23:34.686Z,0.20
2022-07-27T06:26:02.719Z,0.10
2022-07-27T06:28:32.054Z,0.10
2022-07-27T06:31:01.277Z,0.15
2022-07-27T06:33:30.830Z,0.47
2022-07-27T06:36:01.438Z,0.20
2022-07-27T06:40:57.541Z,0.10
2022-07-27T06:43:28.144Z,0.10
2022-07-27T06:45:59.459Z,0.20
2022-07-27T06:48:27.695Z,0.20
2022-07-27T06:50:56.287Z,0.15
2022-07-27T06:53:25.175Z,0.10
2022-07-27T06:55:53.596Z,0.10
2022-07-27T06:58:23.647Z,0.10
2022-07-27T07:00:51.652Z,0.20
2022-07-27T07:03:21.002Z,0.10
2022-07-27T07:05:49.218Z,0.10
2022-07-27T07:08:17.426Z,0.00
2022-07-27T07:10:46.327Z,0.10
2022-07-27T07:13:14.539Z,0.10
2022-07-27T07:15:43.487Z,0.17
2022-07-27T07:18:12.733Z,0.10
2022-07-27T07:20:42.467Z,0.10
2022-07-27T07:23:10.943Z,0.10
2022-07-27T07:25:39.545Z,0.00
2022-07-27T07:28:08.885Z,0.00
2022-07-27T07:30:37.185Z,0.00
2022-07-27T07:33:05.263Z,0.17
2022-07-27T07:35:33.533Z,0.00
2022-07-27T07:38:02.827Z,0.00
2022-07-27T07:40:46.505Z,0.43
2022-07-27T07:43:15.065Z,0.10
2022-07-27T07:45:50.953Z,0.00
2022-07-27T07:48:21.818Z,0.00
2022-07-27T07:50:51.945Z,0.00
2022-07-27T07:53:23.025Z,0.10
2022-07-27T07:55:51.325Z,0.30
2022-07-27T07:58:19.371Z,0.10
2022-07-27T08:00:47.357Z,0.00
2022-07-27T08:03:15.772Z,0.10
2022-07-27T08:05:43.858Z,0.10
2022-07-27T08:08:11.869Z,0.10
2022-07-27T08:10:41.143Z,0.03
2022-07-27T08:13:09.431Z,0.00
2022-07-27T08:15:37.294Z,0.00
2022-07-27T08:18:06.253Z,0.10
2022-07-27T08:20:34.613Z,0.00
2022-07-27T08:23:02.563Z,0.00
2022-07-27T08:25:30.780Z,0.10
2022-07-27T08:28:00.234Z,0.08
2022-07-27T08:30:32.899Z,0.00
2022-07-27T08:33:03.266Z,0.20
2022-07-27T08:35:32.485Z,0.10
2022-07-27T08:38:01.297Z,0.00
2022-07-27T08:40:40.377Z,0.20
2022-07-27T08:43:12.925Z,0.00
2022-07-27T08:45:44.299Z,0.00
2022-07-27T08:48:13.983Z,0.00
2022-07-27T08:50:43.206Z,0.10
2022-07-27T08:53:14.510Z,0.13
2022-07-27T08:55:45.308Z,0.10
2022-07-27T08:58:16.136Z,0.05
2022-07-27T09:00:46.710Z,0.00
2022-07-27T09:03:19.456Z,0.03
2022-07-27T09:05:49.970Z,0.10
2022-07-27T09:08:21.503Z,0.05
2022-07-27T09:10:49.850Z,0.00
2022-07-27T09:13:21.303Z,0.10
2022-07-27T09:18:39.990Z,0.00
2022-07-27T09:21:12.911Z,0.30
2022-07-27T09:23:42.917Z,0.10
2022-07-27T09:26:30.503Z,0.00
2022-07-27T09:29:01.805Z,0.00
2022-07-27T09:31:30.519Z,0.10
2022-07-27T09:34:00.335Z,0.00
2022-07-27T09:36:29.647Z,0.10
2022-07-27T09:39:03.192Z,0.10
2022-07-27T09:41:42.196Z,0.10
2022-07-27T09:44:31.148Z,0.10
2022-07-27T09:47:00.889Z,0.00
2022-07-27T09:49:31.857Z,0.10
2022-07-27T09:52:02.314Z,0.10
2022-07-27T09:54:43.443Z,0.00
2022-07-27T09:57:11.899Z,0.10
2022-07-27T09:59:41.307Z,0.10
2022-07-27T10:02:09.663Z,0.05
2022-07-27T10:04:37.772Z,0.20
2022-07-27T10:07:10.619Z,0.20
2022-07-27T10:09:40.552Z,0.20
2022-07-27T10:12:09.654Z,0.10
2022-07-27T10:14:37.594Z,0.10
2022-07-27T10:17:07.967Z,0.25
2022-07-27T10:19:42.531Z,0.20
2022-07-27T10:22:10.463Z,0.10
2022-07-27T10:24:38.385Z,0.10
2022-07-27T10:27:23.426Z,0.13
2022-07-27T10:29:52.805Z,0.10
2022-07-27T10:32:31.633Z,0.17
2022-07-27T10:35:01.336Z,0.10
2022-07-27T10:37:30.648Z,0.20
2022-07-27T10:40:17.814Z,0.20
2022-07-27T10:42:51.930Z,0.08
2022-07-27T10:45:22.360Z,0.80
2022-07-27T10:47:53.476Z,0.20
2022-07-27T10:50:33.168Z,0.10
2022-07-27T10:53:04.894Z,0.30
2022-07-27T10:55:53.544Z,0.13
2022-07-27T10:58:47.652Z,0.10
2022-07-27T11:01:19.833Z,0.20
2022-07-27T11:03:56.522Z,0.20
2022-07-27T11:06:47.797Z,0.10
2022-07-27T11:10:03.005Z,0.45
2022-07-27T11:12:07.627Z,0.20
2022-07-27T11:14:45.682Z,0.20
2022-07-27T11:17:48.598Z,0.10
2022-07-27T11:20:04.776Z,0.10
2022-07-27T11:23:09.093Z,0.20
2022-07-27T11:25:24.747Z,0.20
2022-07-27T11:27:52.678Z,0.10
2022-07-27T11:30:25.118Z,0.20
2022-07-27T11:32:53.749Z,0.20
2022-07-27T11:35:23.472Z,0.10
2022-07-27T11:38:03.503Z,0.20
2022-07-27T11:43:37.220Z,0.28
2022-07-27T11:46:18.062Z,0.17
2022-07-27T11:49:06.757Z,0.10
2022-07-27T11:51:39.455Z,0.20
2022-07-27T11:54:08.952Z,0.25
2022-07-27T11:56:38.603Z,0.13
2022-07-27T11:59:14.204Z,0.17
2022-07-27T12:01:44.963Z,0.30
2022-07-27T12:04:22.847Z,0.25
2022-07-27T12:07:00.838Z,0.15
2022-07-27T12:09:38.251Z,0.10
2022-07-27T12:12:13.999Z,0.20
2022-07-27T12:14:44.037Z,0.15
2022-07-27T12:17:21.254Z,0.10
2022-07-27T12:19:58.251Z,0.30
2022-07-27T12:22:33.835Z,0.25
2022-07-27T12:25:12.667Z,0.30
2022-07-27T12:27:55.915Z,0.57
2022-07-27T12:30:31.397Z,0.20
2022-07-27T12:33:00.032Z,0.43
2022-07-27T12:35:32.915Z,0.20
2022-07-27T12:38:08.890Z,0.30
2022-07-27T12:40:45.000Z,0.20
2022-07-27T12:43:17.389Z,0.15
2022-07-27T12:45:46.258Z,0.20
2022-07-27T12:48:16.639Z,0.25
2022-07-27T12:50:46.672Z,0.20
2022-07-27T12:53:17.784Z,0.40
2022-07-27T12:55:45.761Z,0.38
2022-07-27T12:58:15.113Z,0.20
2022-07-27T13:00:43.290Z,0.47
2022-07-27T13:03:12.498Z,0.28
2022-07-27T13:05:40.530Z,0.30
2022-07-27T13:08:09.819Z,0.35
2022-07-27T13:10:39.670Z,0.30
2022-07-27T13:13:08.827Z,0.52
2022-07-27T13:15:37.236Z,0.20
2022-07-27T13:18:05.350Z,0.40
2022-07-27T13:20:33.660Z,0.40
2022-07-27T13:23:01.618Z,0.38
2022-07-27T13:25:29.525Z,0.20
2022-07-27T13:27:58.832Z,0.20
2022-07-27T13:30:26.860Z,0.30
2022-07-27T13:32:54.830Z,0.38
2022-07-27T13:35:22.936Z,0.32
2022-07-27T13:37:50.804Z,0.30
2022-07-27T13:40:18.707Z,0.28
2022-07-27T13:42:46.639Z,0.40
2022-07-27T13:45:16.117Z,0.60
2022-07-27T13:47:44.089Z,0.60
2022-07-27T13:50:18.729Z,0.47
2022-07-27T13:52:47.372Z,0.20
2022-07-27T13:55:15.749Z,0.35
2022-07-27T13:57:43.984Z,0.20
2022-07-27T14:00:13.035Z,0.28
2022-07-27T14:02:42.514Z,0.20
2022-07-27T14:05:13.134Z,0.30
2022-07-27T14:07:43.240Z,0.30
2022-07-27T14:10:30.875Z,0.30
2022-07-27T14:13:08.171Z,0.30
2022-07-27T14:15:54.137Z,0.35
2022-07-27T14:18:29.394Z,0.40
2022-07-27T14:20:59.057Z,0.20
2022-07-27T14:23:28.749Z,0.30
2022-07-27T14:25:58.309Z,0.20
2022-07-27T14:28:27.435Z,0.20
2022-07-27T14:30:56.152Z,0.22
2022-07-27T14:33:25.044Z,0.30
2022-07-27T14:35:54.533Z,0.40
2022-07-27T14:38:26.957Z,0.20
2022-07-27T14:41:00.852Z,0.43
2022-07-27T14:43:29.293Z,0.30
2022-07-27T14:45:57.272Z,0.30
2022-07-27T14:48:42.159Z,0.30
2022-07-27T14:51:14.499Z,0.30
2022-07-27T14:53:42.436Z,0.20
2022-07-27T14:56:10.324Z,0.43
2022-07-27T14:58:38.299Z,0.32
2022-07-27T15:01:06.357Z,0.30
2022-07-27T15:03:34.396Z,0.47
2022-07-27T15:06:02.395Z,0.30
2022-07-27T15:08:31.647Z,0.40
2022-07-27T15:10:59.735Z,0.50
2022-07-27T15:13:27.682Z,0.32
2022-07-27T15:15:57.365Z,0.50
2022-07-27T15:18:25.379Z,0.38
2022-07-27T15:20:53.356Z,0.35
2022-07-27T15:23:22.331Z,0.43
2022-07-27T15:25:51.764Z,0.30
2022-07-27T15:28:19.864Z,0.30
2022-07-27T15:30:47.768Z,0.30
2022-07-27T15:33:16.027Z,0.40
2022-07-27T15:35:43.942Z,0.40
2022-07-27T15:38:11.819Z,0.55
2022-07-27T15:40:41.815Z,0.30
2022-07-27T15:43:14.778Z,0.40
2022-07-27T15:45:45.668Z,0.30
2022-07-27T15:48:14.882Z,0.20
2022-07-27T15:50:45.503Z,0.30
2022-07-27T15:53:14.802Z,0.20
2022-07-27T15:55:44.367Z,0.20
2022-07-27T15:58:18.047Z,0.70
2022-07-27T16:00:46.737Z,0.40
2022-07-27T16:03:16.149Z,0.30
2022-07-27T16:05:47.665Z,0.25
2022-07-27T16:08:16.304Z,0.30
2022-07-27T16:10:44.549Z,0.30
2022-07-27T16:13:14.370Z,0.40
2022-07-27T16:16:00.669Z,0.80
2022-07-27T16:18:29.338Z,0.40
2022-07-27T16:20:57.395Z,0.30
2022-07-27T16:23:26.094Z,0.30
2022-07-27T16:26:04.522Z,0.47
2022-07-27T16:28:36.667Z,0.30
2022-07-27T16:31:05.993Z,0.30
2022-07-27T16:33:34.035Z,0.50
2022-07-27T16:36:02.050Z,0.30
2022-07-27T16:38:30.030Z,0.40
2022-07-27T16:40:57.969Z,0.20
2022-07-27T16:43:38.714Z,0.30
2022-07-27T16:46:10.146Z,0.30
2022-07-27T16:48:42.226Z,0.30
2022-07-27T16:51:12.393Z,0.30
2022-07-27T16:53:41.181Z,0.40
2022-07-27T16:56:10.051Z,0.20
2022-07-27T16:58:38.363Z,0.47
2022-07-27T17:01:06.800Z,0.40
2022-07-27T17:03:36.262Z,0.30
2022-07-27T17:06:06.585Z,0.10
2022-07-27T17:08:35.089Z,0.20
2022-07-27T17:11:03.011Z,0.20
2022-07-27T17:13:34.790Z,0.20
2022-07-27T17:16:03.117Z,0.30
2022-07-27T17:18:37.189Z,0.32
2022-07-27T17:21:09.579Z,0.30
2022-07-27T17:26:09.099Z,0.20
2022-07-27T17:28:39.693Z,0.30
2022-07-27T17:31:09.810Z,0.30
2022-07-27T17:33:38.350Z,0.40
2022-07-27T17:36:13.991Z,0.38
2022-07-27T17:38:42.830Z,0.30
2022-07-27T17:41:10.808Z,0.40
2022-07-27T17:43:39.785Z,0.30
2022-07-27T17:46:08.906Z,0.50
2022-07-27T17:48:37.581Z,0.10
2022-07-27T17:51:06.573Z,0.30
2022-07-27T17:53:35.854Z,0.20
2022-07-27T17:56:04.755Z,0.28
2022-07-27T17:58:32.640Z,0.30
2022-07-27T18:01:00.748Z,0.20
2022-07-27T18:03:28.717Z,0.40
2022-07-27T18:05:56.863Z,0.35
2022-07-27T18:08:24.809Z,0.32
2022-07-27T18:10:54.112Z,0.20
2022-07-27T18:13:22.011Z,0.57
2022-07-27T18:15:50.624Z,0.28
2022-07-27T18:18:21.256Z,0.20
2022-07-27T18:23:21.542Z,0.32
2022-07-27T18:25:50.469Z,0.38
2022-07-27T18:28:21.221Z,0.28
2022-07-27T18:30:51.243Z,0.30
2022-07-27T18:33:20.329Z,0.20
2022-07-27T18:35:48.667Z,0.30
2022-07-27T18:38:16.977Z,0.30
2022-07-27T18:40:46.611Z,0.30
2022-07-27T18:43:16.067Z,0.20
2022-07-27T18:45:45.494Z,0.30
2022-07-27T18:48:13.587Z,0.40
2022-07-27T18:50:42.158Z,0.60
2022-07-27T18:53:10.278Z,0.20
2022-07-27T18:55:38.743Z,0.40
2022-07-27T18:58:07.078Z,0.40
2022-07-27T19:00:35.129Z,0.60
2022-07-27T19:03:04.680Z,0.30
2022-07-27T19:05:41.429Z,0.65
2022-07-27T19:08:13.165Z,0.35
2022-07-27T19:10:42.434Z,0.30
2022-07-27T19:13:10.694Z,0.47
2022-07-27T19:15:38.715Z,0.30
2022-07-27T19:18:09.027Z,0.43
2022-07-27T19:20:37.789Z,0.30
2022-07-27T19:23:05.826Z,0.30
2022-07-27T19:25:34.560Z,0.47
2022-07-27T19:28:02.923Z,1.00
2022-07-27T19:30:30.959Z,0.40
2022-07-27T19:32:59.059Z,0.50
2022-07-27T19:35:28.473Z,0.55
2022-07-27T19:37:56.389Z,0.43
2022-07-27T19:43:12.320Z,0.60
2022-07-27T19:45:40.613Z,0.55
2022-07-27T19:50:21.271Z,0.60
2022-07-27T19:52:49.145Z,0.20
2022-07-27T19:55:17.066Z,0.52
2022-07-27T19:57:44.956Z,0.35
2022-07-27T20:00:13.779Z,0.50
2022-07-27T20:02:41.870Z,0.70
2022-07-27T20:05:10.302Z,0.40
2022-07-27T20:07:39.590Z,0.55
2022-07-27T20:10:08.155Z,0.20
2022-07-27T20:12:36.082Z,0.50
2022-07-27T20:15:04.122Z,0.40
2022-07-27T20:17:37.028Z,0.30
2022-07-27T20:20:06.693Z,0.40
2022-07-27T20:22:34.615Z,0.30
2022-07-27T20:25:04.086Z,0.55
2022-07-27T20:27:32.316Z,0.60
2022-07-27T20:30:00.256Z,0.30
2022-07-27T20:32:28.248Z,0.40
2022-07-27T20:34:56.166Z,0.50
2022-07-27T20:37:24.042Z,0.30
2022-07-27T20:39:51.986Z,0.50
2022-07-27T20:42:21.315Z,0.40
2022-07-27T20:44:49.222Z,0.85
2022-07-27T20:47:17.298Z,0.35
2022-07-27T20:49:45.172Z,0.45
2022-07-27T20:52:13.074Z,0.30
2022-07-27T20:54:41.010Z,0.68
2022-07-27T20:57:08.895Z,0.43
2022-07-27T20:59:38.260Z,0.70
2022-07-27T21:02:07.650Z,0.73
2022-07-27T21:04:35.776Z,0.70
2022-07-27T21:07:03.638Z,0.70
2022-07-27T21:09:32.239Z,1.25
2022-07-27T21:12:00.175Z,0.60
2022-07-27T21:14:28.104Z,0.52
2022-07-27T21:16:57.449Z,0.90
2022-07-27T21:19:25.882Z,1.00
2022-07-27T21:21:53.886Z,0.77
2022-07-27T21:24:22.799Z,0.95
2022-07-27T21:26:52.843Z,0.88
2022-07-27T21:29:22.064Z,0.80
2022-07-27T21:31:51.396Z,0.93
2022-07-27T21:34:22.027Z,1.00
2022-07-27T21:36:50.799Z,0.80
2022-07-27T21:39:19.311Z,0.75
2022-07-27T21:41:47.612Z,0.75
2022-07-27T21:44:16.100Z,1.00
2022-07-27T21:46:44.407Z,0.70
2022-07-27T21:49:13.169Z,0.68
2022-07-27T21:51:42.585Z,0.52
2022-07-27T21:54:10.702Z,0.52
2022-07-27T21:56:40.797Z,0.40
2022-07-27T21:59:09.186Z,0.60
2022-07-27T22:01:37.177Z,0.77
2022-07-27T22:04:05.601Z,0.80
2022-07-27T22:06:33.756Z,0.60
2022-07-27T22:09:03.045Z,0.80
2022-07-27T22:11:30.944Z,0.70
2022-07-27T22:13:58.859Z,0.35
2022-07-27T22:16:26.825Z,0.50
2022-07-27T22:18:55.411Z,0.47
2022-07-27T22:21:23.487Z,0.60
2022-07-27T22:23:51.389Z,0.45
2022-07-27T22:26:20.629Z,0.50
2022-07-27T22:28:48.512Z,0.50
2022-07-27T22:31:22.413Z,0.88
2022-07-27T22:33:50.970Z,0.50
2022-07-27T22:36:18.841Z,0.50
2022-07-27T22:38:46.728Z,0.60
2022-07-27T22:41:15.068Z,0.73
2022-07-27T22:43:44.340Z,0.50
2022-07-27T22:46:12.340Z,0.50
2022-07-27T22:48:40.379Z,0.43
2022-07-27T22:51:08.692Z,0.50
2022-07-27T22:53:38.573Z,0.70
2022-07-27T22:56:06.640Z,0.70
2022-07-27T22:58:34.520Z,0.75
2022-07-27T23:01:04.029Z,0.30
2022-07-27T23:03:32.009Z,0.50
2022-07-27T23:05:59.899Z,0.60
2022-07-27T23:08:27.902Z,0.40
2022-07-27T23:10:55.951Z,0.40
2022-07-27T23:13:24.088Z,0.52
2022-07-27T23:15:52.186Z,0.50
2022-07-27T23:18:25.115Z,0.47
2022-07-27T23:20:53.501Z,0.40
2022-07-27T23:23:21.679Z,0.75
2022-07-27T23:25:51.014Z,0.47
2022-07-27T23:28:19.476Z,0.60
2022-07-27T23:30:47.529Z,0.47
2022-07-27T23:33:15.669Z,0.70
2022-07-27T23:35:45.161Z,0.80
2022-07-27T23:38:13.083Z,0.65
2022-07-27T23:40:40.975Z,0.40
2022-07-27T23:43:08.880Z,1.13
2022-07-27T23:45:36.842Z,0.50
2022-07-27T23:48:05.003Z,0.30
2022-07-27T23:50:32.904Z,0.38
2022-07-27T23:53:02.178Z,0.50
2022-07-27T23:55:30.150Z,0.52
2022-07-27T23:57:58.000Z,0.40
